Time;durP1;ratioP1;P1;durP2;ratioP2;P2;SDS_P1;SDS_P2;PMS_P1;PMS_P2;Temp;Humidity;BMP_temperature;BMP_pressure;BME280_temperature;BME280_humidity;BME280_pressure;Samples;Min_cycle;Max_cycle;Signal;HPM_P1;HPM_P2
2021/12/14 00:00:50;;;;;;;18.43;12.50;;;8.40;99.90;;;;;;5111028;28;20100;-64
2021/12/14 00:03:23;;;;;;;16.13;11.20;;;8.40;99.90;;;;;;5123472;27;20414;-64
2021/12/14 00:05:50;;;;;;;18.50;12.52;;;8.40;99.90;;;;;;5089672;28;20101;-63
2021/12/14 00:08:17;;;;;;;17.27;11.68;;;8.40;99.90;;;;;;5091196;28;20055;-63
2021/12/14 00:10:58;;;;;;;17.65;11.73;;;8.40;99.90;;;;;;5090262;28;20078;-64
2021/12/14 00:15:54;;;;;;;16.48;12.05;;;8.40;99.90;;;;;;5090945;28;20079;-63
2021/12/14 00:18:20;;;;;;;19.73;13.30;;;8.40;99.90;;;;;;5090309;28;20040;-64
2021/12/14 00:20:50;;;;;;;20.23;12.65;;;8.40;99.90;;;;;;5089686;28;20120;-64
2021/12/14 00:25:49;;;;;;;17.77;12.45;;;8.40;99.90;;;;;;5089744;28;20066;-64
2021/12/14 00:28:23;;;;;;;19.38;12.07;;;8.40;99.90;;;;;;5091001;28;20072;-63
2021/12/14 00:30:51;;;;;;;16.30;11.30;;;8.30;99.90;;;;;;5089516;28;20135;-64
2021/12/14 00:33:20;;;;;;;17.60;12.07;;;8.30;99.90;;;;;;5091174;28;20083;-64
2021/12/14 00:35:48;;;;;;;15.20;11.95;;;8.30;99.90;;;;;;5095825;28;20059;-63
2021/12/14 00:38:15;;;;;;;16.45;11.05;;;8.30;99.90;;;;;;5095563;28;20031;-64
2021/12/14 00:40:45;;;;;;;20.10;11.88;;;8.30;99.90;;;;;;5109882;28;20129;-63
2021/12/14 00:43:11;;;;;;;16.52;11.75;;;8.30;99.90;;;;;;5111280;28;20119;-64
2021/12/14 00:45:39;;;;;;;17.65;11.98;;;8.30;99.90;;;;;;5110031;28;20459;-63
2021/12/14 00:48:07;;;;;;;14.48;10.25;;;8.30;99.90;;;;;;5111298;28;20040;-64
2021/12/14 00:50:34;;;;;;;16.98;12.20;;;8.30;99.90;;;;;;5111013;28;20058;-63
2021/12/14 00:53:00;;;;;;;17.20;12.00;;;8.20;99.90;;;;;;5108506;28;20416;-64
2021/12/14 00:55:32;;;;;;;19.77;11.38;;;8.20;99.90;;;;;;5110823;28;20059;-63
2021/12/14 00:57:59;;;;;;;17.70;11.45;;;8.30;99.90;;;;;;5111026;28;20082;-64
2021/12/14 01:00:31;;;;;;;16.27;11.57;;;8.20;99.90;;;;;;5110529;28;20071;-64
2021/12/14 01:02:57;;;;;;;14.13;10.40;;;8.20;99.90;;;;;;5111207;28;20036;-63
2021/12/14 01:05:33;;;;;;;16.13;10.82;;;8.20;99.90;;;;;;5109640;28;20105;-64
2021/12/14 01:08:01;;;;;;;18.88;11.27;;;8.20;99.90;;;;;;5109139;28;20043;-64
2021/12/14 01:10:39;;;;;;;15.50;9.70;;;8.20;99.90;;;;;;5106207;28;20040;-64
2021/12/14 01:13:09;;;;;;;14.23;11.80;;;8.20;99.90;;;;;;5098998;28;20055;-64
2021/12/14 01:15:52;;;;;;;16.60;11.50;;;8.20;99.90;;;;;;5114626;28;20052;-63
2021/12/14 01:18:46;;;;;;;;;;;8.20;99.90;;;;;;5115348;27;20054;-64
2021/12/14 01:21:27;;;;;;;15.02;10.75;;;8.20;99.90;;;;;;5114030;28;19931;-64
2021/12/14 01:24:04;;;;;;;14.75;10.80;;;8.20;99.90;;;;;;5113034;28;20402;-64
2021/12/14 01:26:32;;;;;;;15.73;10.85;;;8.20;99.90;;;;;;5113376;28;20537;-64
2021/12/14 01:28:59;;;;;;;21.05;11.98;;;8.20;99.90;;;;;;5112830;28;20047;-63
2021/12/14 01:31:33;;;;;;;16.65;11.93;;;8.20;99.90;;;;;;5112893;28;20040;-64
2021/12/14 01:34:05;;;;;;;17.70;13.20;;;8.20;99.90;;;;;;5114633;28;20146;-64
2021/12/14 01:41:53;;;;;;;19.17;13.07;;;8.20;99.90;;;;;;5113348;27;20047;-64
2021/12/14 01:44:19;;;;;;;17.00;12.98;;;8.20;99.90;;;;;;5088661;28;20043;-64
2021/12/14 01:46:48;;;;;;;18.10;12.73;;;8.20;99.90;;;;;;5109376;28;20046;-64
2021/12/14 01:49:16;;;;;;;17.20;13.50;;;8.20;99.90;;;;;;5092998;28;20490;-64
2021/12/14 01:51:48;;;;;;;22.55;13.93;;;8.20;99.90;;;;;;5093477;28;20097;-64
2021/12/14 01:54:18;;;;;;;17.02;13.45;;;8.10;99.90;;;;;;5108710;28;20085;-63
2021/12/14 01:56:43;;;;;;;18.45;13.73;;;8.20;99.90;;;;;;5113849;28;20472;-63
2021/12/14 01:59:16;;;;;;;16.58;12.82;;;8.20;99.90;;;;;;5114005;28;20135;-63
2021/12/14 02:01:55;;;;;;;18.80;13.73;;;8.20;99.90;;;;;;5113857;28;20054;-63
2021/12/14 02:04:24;;;;;;;20.58;14.02;;;8.20;99.90;;;;;;5113263;28;20048;-63
2021/12/14 02:06:56;;;;;;;19.13;14.25;;;8.20;99.90;;;;;;5113554;28;20051;-64
2021/12/14 02:09:26;;;;;;;24.75;14.52;;;8.10;99.90;;;;;;5111812;28;20079;-63
2021/12/14 02:11:54;;;;;;;21.85;15.50;;;8.20;99.90;;;;;;5113716;28;20047;-63
2021/12/14 02:14:22;;;;;;;20.65;14.88;;;8.20;99.90;;;;;;5112119;28;20538;-63
2021/12/14 02:16:50;;;;;;;19.67;15.55;;;8.20;99.90;;;;;;5112692;28;20075;-63
2021/12/14 02:19:16;;;;;;;22.33;13.88;;;8.20;99.90;;;;;;5112201;28;20052;-63
2021/12/14 02:21:44;;;;;;;18.20;14.48;;;8.20;99.90;;;;;;5113255;28;20489;-63
2021/12/14 02:24:12;;;;;;;19.65;14.68;;;8.10;99.90;;;;;;5111243;28;20497;-63
2021/12/14 02:26:41;;;;;;;21.85;16.42;;;8.10;99.90;;;;;;5113191;28;20059;-63
2021/12/14 02:29:10;;;;;;;20.60;15.10;;;8.10;99.90;;;;;;5112403;28;20055;-63
2021/12/14 02:31:38;;;;;;;27.55;17.33;;;8.10;99.90;;;;;;5112303;28;20075;-63
2021/12/14 02:34:05;;;;;;;21.58;16.52;;;8.10;99.90;;;;;;5113307;28;20154;-63
2021/12/14 02:36:41;;;;;;;25.13;17.75;;;8.10;99.90;;;;;;5113044;28;20447;-63
2021/12/14 02:39:22;;;;;;;22.67;16.30;;;8.10;99.90;;;;;;5112541;28;20108;-63
2021/12/14 02:41:52;;;;;;;21.38;15.45;;;8.10;99.90;;;;;;5111635;28;20062;-63
2021/12/14 02:44:18;;;;;;;21.75;14.90;;;8.10;99.90;;;;;;5113005;28;20050;-63
2021/12/14 02:46:48;;;;;;;23.15;16.05;;;8.00;99.90;;;;;;5110717;28;20056;-64
2021/12/14 02:49:17;;;;;;;26.60;16.70;;;8.10;99.90;;;;;;5111664;28;20031;-63
2021/12/14 02:51:48;;;;;;;23.48;17.50;;;8.00;99.90;;;;;;5110714;28;20078;-63
2021/12/14 02:54:28;;;;;;;20.90;16.55;;;8.00;99.90;;;;;;5112959;28;20052;-64
2021/12/14 02:57:05;;;;;;;25.50;16.65;;;8.00;99.90;;;;;;5112869;28;20408;-64
2021/12/14 02:59:35;;;;;;;25.27;17.60;;;8.00;99.90;;;;;;5111956;28;20075;-63
2021/12/14 03:02:04;;;;;;;24.35;17.65;;;8.00;99.90;;;;;;5113238;28;20055;-63
2021/12/14 03:04:32;;;;;;;23.33;16.63;;;8.00;99.90;;;;;;5111029;28;20043;-63
2021/12/14 03:07:00;;;;;;;23.98;17.40;;;8.00;99.90;;;;;;5112009;28;20043;-64
2021/12/14 03:09:54;;;;;;;26.65;17.33;;;8.00;99.90;;;;;;5111426;28;20056;-64
2021/12/14 03:12:39;;;;;;;21.85;17.15;;;8.00;99.90;;;;;;5111101;28;20051;-63
2021/12/14 03:15:17;;;;;;;24.50;17.48;;;8.00;99.90;;;;;;5112418;28;20180;-63
2021/12/14 03:17:44;;;;;;;22.02;16.30;;;8.00;99.90;;;;;;5112086;27;20052;-64
2021/12/14 03:20:10;;;;;;;26.08;17.35;;;8.00;99.90;;;;;;5112062;28;20067;-64
2021/12/14 03:22:47;;;;;;;25.00;19.70;;;8.00;99.90;;;;;;5112086;28;20482;-63
2021/12/14 03:25:15;;;;;;;24.77;18.63;;;8.00;99.90;;;;;;5110954;28;20134;-63
2021/12/14 03:27:44;;;;;;;26.67;18.80;;;8.00;99.90;;;;;;5110015;28;20050;-64
2021/12/14 03:30:28;;;;;;;21.02;14.38;;;8.00;99.90;;;;;;5112128;28;20047;-64
2021/12/14 03:32:59;;;;;;;20.88;16.08;;;8.00;99.90;;;;;;5112355;28;20055;-63
2021/12/14 03:35:58;;;;;;;28.67;19.48;;;8.10;99.90;;;;;;5110585;28;20054;-63
2021/12/14 03:38:28;;;;;;;25.67;17.88;;;8.00;99.90;;;;;;5100707;28;20142;-63
2021/12/14 03:41:11;;;;;;;28.77;18.88;;;8.00;99.90;;;;;;5111508;27;20048;-63
2021/12/14 03:43:39;;;;;;;27.25;18.10;;;8.00;99.90;;;;;;5111772;28;20039;-64
2021/12/14 03:46:06;;;;;;;30.17;18.88;;;8.00;99.90;;;;;;5111987;28;20168;-63
2021/12/14 03:48:33;;;;;;;26.20;18.10;;;8.00;99.90;;;;;;5109619;28;20055;-63
2021/12/14 03:51:01;;;;;;;26.20;18.88;;;8.00;99.90;;;;;;5111849;28;20059;-64
2021/12/14 03:53:27;;;;;;;30.75;20.05;;;8.10;99.90;;;;;;5097423;28;20059;-63
2021/12/14 03:55:56;;;;;;;28.05;19.98;;;8.10;99.90;;;;;;5122082;27;20043;-64
2021/12/14 03:58:30;;;;;;;27.42;19.60;;;8.10;99.90;;;;;;5076144;28;20043;-64
2021/12/14 04:01:01;;;;;;;25.52;18.77;;;8.00;99.90;;;;;;5111796;28;20048;-64
2021/12/14 04:03:30;;;;;;;25.08;17.40;;;8.10;99.90;;;;;;5110891;28;20691;-64
2021/12/14 04:05:56;;;;;;;30.75;20.92;;;8.10;99.90;;;;;;5111774;28;20060;-64
2021/12/14 04:08:23;;;;;;;26.92;18.73;;;8.10;99.90;;;;;;5111517;28;20043;-64
2021/12/14 04:10:49;;;;;;;26.77;20.10;;;8.10;99.90;;;;;;5109404;28;20342;-64
2021/12/14 04:13:21;;;;;;;30.48;21.35;;;8.10;99.90;;;;;;5111390;28;20094;-64
2021/12/14 04:15:48;;;;;;;34.08;20.23;;;8.10;99.90;;;;;;5111250;28;20092;-63
2021/12/14 04:18:14;;;;;;;29.67;20.25;;;8.10;99.90;;;;;;5107193;28;20036;-63
2021/12/14 04:20:43;;;;;;;27.67;20.02;;;8.20;99.90;;;;;;5086138;28;20047;-63
2021/12/14 04:23:16;;;;;;;31.85;21.05;;;8.10;99.90;;;;;;5082597;28;20059;-63
2021/12/14 04:25:44;;;;;;;27.55;20.02;;;8.10;99.90;;;;;;5080502;28;20052;-63
2021/12/14 04:28:13;;;;;;;28.10;19.90;;;8.10;99.90;;;;;;5082986;28;20083;-63
2021/12/14 04:30:39;;;;;;;34.88;23.20;;;8.10;99.90;;;;;;5073155;28;20051;-63
2021/12/14 04:33:08;;;;;;;35.50;24.08;;;8.00;99.90;;;;;;5070269;28;20056;-62
2021/12/14 04:35:38;;;;;;;34.55;23.52;;;8.00;99.90;;;;;;5077573;28;20063;-63
2021/12/14 04:38:13;;;;;;;31.80;23.33;;;8.00;99.90;;;;;;5071787;28;20037;-63
2021/12/14 04:51:59;;;;;;;35.78;21.48;;;7.90;99.90;;;;;;5095199;28;20055;-63
2021/12/14 04:54:30;;;;;;;36.15;25.25;;;7.90;99.90;;;;;;5113302;28;20059;-63
2021/12/14 04:56:57;;;;;;;32.45;21.60;;;7.80;99.90;;;;;;5113129;28;20043;-63
2021/12/14 04:59:27;;;;;;;37.00;22.42;;;7.80;99.90;;;;;;5100433;28;20459;-63
2021/12/14 05:01:58;;;;;;;38.80;26.52;;;7.80;99.90;;;;;;5083859;28;20036;-63
2021/12/14 05:04:26;;;;;;;31.27;21.08;;;7.90;99.90;;;;;;5092488;28;20051;-63
2021/12/14 05:07:03;;;;;;;35.35;22.08;;;7.80;99.90;;;;;;5090259;28;20051;-63
2021/12/14 05:09:33;;;;;;;36.67;22.83;;;7.90;99.90;;;;;;5090021;28;20498;-63
2021/12/14 05:12:12;;;;;;;34.95;22.23;;;7.90;99.90;;;;;;5094340;28;20059;-63
2021/12/14 05:14:40;;;;;;;34.05;23.50;;;7.90;99.90;;;;;;5092286;28;20060;-63
2021/12/14 05:17:10;;;;;;;37.10;24.85;;;7.90;99.90;;;;;;5093211;28;20044;-63
2021/12/14 05:19:38;;;;;;;33.72;23.42;;;7.90;99.90;;;;;;5093443;28;20180;-63
2021/12/14 05:22:11;;;;;;;33.85;24.65;;;7.80;99.90;;;;;;5092401;28;20035;-63
2021/12/14 05:24:40;;;;;;;30.80;21.73;;;7.80;99.90;;;;;;5105813;28;20035;-63
2021/12/14 05:27:08;;;;;;;34.70;22.20;;;7.90;99.90;;;;;;5095288;28;20407;-63
2021/12/14 05:29:34;;;;;;;39.40;26.30;;;7.80;99.90;;;;;;5088255;28;20046;-63
2021/12/14 05:32:03;;;;;;;35.53;24.73;;;7.80;99.90;;;;;;5099700;28;20066;-63
2021/12/14 05:34:29;;;;;;;42.35;26.98;;;7.80;99.90;;;;;;5075559;28;20052;-62
2021/12/14 05:36:56;;;;;;;36.90;23.73;;;7.80;99.90;;;;;;5073636;28;20149;-63
2021/12/14 05:39:41;;;;;;;36.28;23.90;;;7.80;99.90;;;;;;5073674;28;20135;-62
2021/12/14 05:44:42;;;;;;;36.95;23.88;;;7.70;99.90;;;;;;5089017;28;20064;-63
2021/12/14 05:47:12;;;;;;;36.83;26.17;;;7.80;99.90;;;;;;5089593;28;20055;-63
2021/12/14 05:49:41;;;;;;;33.60;22.63;;;7.90;99.90;;;;;;5072578;28;20041;-63
2021/12/14 05:52:12;;;;;;;34.60;23.85;;;7.80;99.90;;;;;;5072273;28;20653;-63
2021/12/14 05:54:38;;;;;;;38.58;25.35;;;7.80;99.90;;;;;;5071214;28;20057;-63
2021/12/14 05:57:06;;;;;;;37.45;24.95;;;7.80;99.90;;;;;;5073560;28;20601;-63
2021/12/14 05:59:33;;;;;;;34.65;23.83;;;7.80;99.90;;;;;;5112946;27;20075;-62
2021/12/14 06:02:00;;;;;;;39.38;24.55;;;7.90;99.90;;;;;;5100862;28;20039;-63
2021/12/14 06:04:32;;;;;;;36.08;23.02;;;7.80;99.90;;;;;;5113825;28;20525;-63
2021/12/14 06:06:57;;;;;;;38.22;24.40;;;7.90;99.90;;;;;;5112510;28;20534;-63
2021/12/14 06:09:28;;;;;;;43.83;27.23;;;7.90;99.90;;;;;;5101551;28;20059;-63
2021/12/14 06:12:00;;;;;;;38.97;25.27;;;7.90;99.90;;;;;;5097795;28;20363;-63
2021/12/14 06:14:28;;;;;;;33.35;22.30;;;8.00;99.90;;;;;;5129022;27;20425;-63
2021/12/14 06:16:57;;;;;;;40.20;25.45;;;8.00;99.90;;;;;;5112609;28;20134;-62
2021/12/14 06:19:26;;;;;;;36.20;24.05;;;8.00;99.90;;;;;;5112298;28;20096;-63
2021/12/14 06:21:55;;;;;;;42.33;25.85;;;8.00;99.90;;;;;;5112194;28;20130;-63
2021/12/14 06:24:23;;;;;;;37.80;21.67;;;8.10;99.90;;;;;;5112948;27;20054;-63
2021/12/14 06:26:52;;;;;;;40.55;27.58;;;8.10;99.90;;;;;;5113222;28;20142;-63
2021/12/14 06:29:36;;;;;;;36.60;22.40;;;8.00;99.90;;;;;;5111990;28;20118;-63
2021/12/14 06:32:12;;;;;;;42.53;27.05;;;8.10;99.90;;;;;;5098440;28;20063;-63
2021/12/14 06:34:42;;;;;;;40.15;27.25;;;8.00;99.90;;;;;;5101124;28;20048;-63
2021/12/14 06:37:28;;;;;;;40.40;27.05;;;8.00;99.90;;;;;;5092325;28;20549;-63
2021/12/14 06:39:59;;;;;;;40.80;26.52;;;8.00;99.90;;;;;;5083875;28;20048;-63
2021/12/14 06:42:25;;;;;;;41.97;25.27;;;8.00;99.90;;;;;;5082170;28;20044;-63
2021/12/14 06:45:01;;;;;;;43.88;28.50;;;8.00;99.90;;;;;;5075144;28;20441;-63
2021/12/14 06:47:30;;;;;;;39.58;25.83;;;8.00;99.90;;;;;;5079411;28;20485;-63
2021/12/14 06:50:00;;;;;;;40.40;25.27;;;8.10;99.90;;;;;;5090359;28;20052;-63
2021/12/14 06:52:26;;;;;;;45.40;28.25;;;8.00;99.90;;;;;;5070404;28;20049;-63
2021/12/14 06:54:51;;;;;;;36.70;23.45;;;8.00;99.90;;;;;;5087669;28;20044;-63
2021/12/14 06:57:17;;;;;;;42.50;25.50;;;8.00;99.90;;;;;;5084341;28;20054;-63
2021/12/14 06:59:43;;;;;;;36.92;24.08;;;8.00;99.90;;;;;;5086367;28;20051;-63
2021/12/14 07:02:10;;;;;;;42.85;26.77;;;8.00;99.90;;;;;;5071873;28;20032;-62
2021/12/14 07:04:40;;;;;;;40.08;26.38;;;8.00;99.90;;;;;;5087390;28;20093;-63
2021/12/14 07:07:09;;;;;;;55.38;28.23;;;8.00;99.90;;;;;;5080298;28;20046;-63
2021/12/14 07:09:44;;;;;;;38.75;26.75;;;7.90;99.90;;;;;;5092926;28;20088;-63
2021/12/14 07:12:13;;;;;;;43.08;27.17;;;8.00;99.90;;;;;;5096391;28;20133;-63
2021/12/14 07:14:53;;;;;;;49.47;28.23;;;8.00;99.90;;;;;;5091695;28;20052;-63
2021/12/14 07:17:41;;;;;;;50.47;27.70;;;8.00;99.90;;;;;;5090877;28;20056;-63
2021/12/14 07:20:22;;;;;;;39.70;24.02;;;8.00;99.90;;;;;;5090184;28;20044;-63
2021/12/14 07:22:57;;;;;;;38.95;23.20;;;8.00;99.90;;;;;;5090413;28;20046;-63
2021/12/14 07:25:28;;;;;;;41.67;26.30;;;8.00;99.90;;;;;;5087096;28;20477;-64
2021/12/14 07:28:04;;;;;;;47.78;26.75;;;8.00;99.90;;;;;;5098561;28;20052;-63
2021/12/14 07:30:36;;;;;;;45.00;26.13;;;8.00;99.90;;;;;;5111853;28;20054;-63
2021/12/14 07:33:25;;;;;;;54.35;31.60;;;7.90;99.90;;;;;;5103341;28;20044;-63
2021/12/14 07:36:06;;;;;;;52.88;30.98;;;8.00;99.90;;;;;;5090113;28;20109;-63
2021/12/14 07:38:47;;;;;;;58.17;30.13;;;7.90;99.90;;;;;;5091481;28;20075;-63
2021/12/14 07:41:33;;;;;;;46.92;29.33;;;7.90;99.90;;;;;;5091179;28;20040;-63
2021/12/14 07:44:09;;;;;;;47.50;27.77;;;7.90;99.90;;;;;;5088106;28;20081;-63
2021/12/14 07:46:49;;;;;;;51.70;29.65;;;8.00;99.90;;;;;;5077109;28;20041;-63
2021/12/14 07:49:25;;;;;;;50.10;27.92;;;8.00;99.90;;;;;;5104669;28;20073;-63
2021/12/14 07:51:58;;;;;;;49.08;28.65;;;8.00;99.90;;;;;;5071141;28;20422;-63
2021/12/14 07:54:28;;;;;;;46.10;27.70;;;7.90;99.90;;;;;;5069039;28;20110;-63
2021/12/14 07:57:18;;;;;;;51.10;29.80;;;7.90;99.90;;;;;;5071019;28;20040;-63
2021/12/14 07:59:45;;;;;;;45.70;27.85;;;8.00;99.90;;;;;;5072899;28;20040;-63
2021/12/14 08:02:19;;;;;;;53.30;31.77;;;7.90;99.90;;;;;;5084966;28;20438;-63
2021/12/14 08:04:58;;;;;;;54.80;30.10;;;8.00;99.90;;;;;;5071718;28;20049;-63
2021/12/14 08:07:35;;;;;;;50.97;29.75;;;8.00;99.90;;;;;;5103214;28;20062;-63
2021/12/14 08:10:07;;;;;;;50.70;27.75;;;8.00;99.90;;;;;;5090730;28;20081;-63
2021/12/14 08:12:46;;;;;;;44.78;27.35;;;7.90;99.90;;;;;;5096119;28;20134;-63
2021/12/14 08:15:15;;;;;;;50.25;29.98;;;8.00;99.90;;;;;;5092517;28;20048;-63
2021/12/14 08:17:42;;;;;;;54.15;27.65;;;7.90;99.90;;;;;;5103735;28;20489;-63
2021/12/14 08:20:21;;;;;;;69.32;32.58;;;8.00;99.90;;;;;;5110373;28;20059;-63
2021/12/14 08:22:47;;;;;;;45.97;27.90;;;8.00;99.90;;;;;;5108791;28;20055;-63
2021/12/14 08:25:15;;;;;;;54.35;29.90;;;8.00;99.90;;;;;;5103294;28;20402;-63
2021/12/14 08:27:41;;;;;;;47.85;30.00;;;8.10;99.90;;;;;;5091301;28;20048;-67
2021/12/14 08:30:15;;;;;;;51.35;28.05;;;8.00;99.90;;;;;;5090817;28;20044;-63
2021/12/14 08:32:42;;;;;;;55.95;31.67;;;8.00;99.90;;;;;;5090586;28;20425;-63
2021/12/14 08:35:12;;;;;;;49.88;30.98;;;8.10;99.90;;;;;;5111853;28;20157;-64
2021/12/14 08:37:43;;;;;;;50.45;29.98;;;8.10;99.90;;;;;;5110184;28;20047;-63
2021/12/14 08:40:23;;;;;;;43.50;26.98;;;8.10;99.90;;;;;;5097375;28;20044;-63
2021/12/14 08:43:03;;;;;;;55.08;28.25;;;8.10;99.90;;;;;;5090556;28;20079;-63
2021/12/14 08:45:34;;;;;;;48.35;28.38;;;8.10;99.90;;;;;;5090935;28;20051;-63
2021/12/14 08:48:02;;;;;;;48.80;28.65;;;8.20;99.90;;;;;;5091665;28;20067;-63
2021/12/14 08:50:30;;;;;;;50.05;28.23;;;8.10;99.90;;;;;;5089975;28;20043;-63
2021/12/14 08:52:56;;;;;;;52.35;26.95;;;8.20;99.90;;;;;;5090117;28;20052;-63
2021/12/14 08:55:26;;;;;;;55.70;30.77;;;8.10;99.90;;;;;;5089961;28;20122;-64
2021/12/14 08:57:52;;;;;;;52.50;30.27;;;8.20;99.90;;;;;;5089105;28;20089;-64
2021/12/14 09:00:23;;;;;;;49.38;28.98;;;8.20;99.90;;;;;;5091516;28;20036;-64
2021/12/14 09:02:52;;;;;;;49.95;27.50;;;8.10;99.90;;;;;;5098282;28;20429;-64
2021/12/14 09:05:41;;;;;;;49.33;27.15;;;8.10;99.90;;;;;;5095206;28;20040;-63
2021/12/14 09:08:08;;;;;;;43.40;26.20;;;8.10;99.90;;;;;;5084371;28;20500;-64
2021/12/14 09:10:37;;;;;;;47.78;25.42;;;8.10;99.90;;;;;;5097874;28;20051;-63
2021/12/14 09:13:09;;;;;;;51.28;29.00;;;8.20;99.90;;;;;;5092523;28;20380;-63
2021/12/14 09:15:52;;;;;;;45.90;28.35;;;8.10;99.90;;;;;;5100444;28;20513;-63
2021/12/14 09:18:19;;;;;;;50.38;29.17;;;8.20;99.90;;;;;;5111167;28;20086;-63
2021/12/14 09:20:48;;;;;;;57.10;29.20;;;8.10;99.90;;;;;;5093818;28;20123;-63
2021/12/14 09:23:28;;;;;;;49.30;28.40;;;8.20;99.90;;;;;;5089985;28;20402;-63
2021/12/14 09:25:55;;;;;;;72.95;34.13;;;8.20;99.90;;;;;;5090799;28;20048;-63
2021/12/14 09:28:21;;;;;;;58.33;31.08;;;8.20;99.90;;;;;;5091307;28;20044;-64
2021/12/14 09:30:56;;;;;;;47.45;28.38;;;8.20;99.90;;;;;;5089329;28;20171;-64
2021/12/14 09:33:24;;;;;;;53.67;30.00;;;8.20;99.90;;;;;;5100038;28;20391;-64
2021/12/14 09:35:50;;;;;;;49.38;28.05;;;8.30;99.90;;;;;;5111310;28;20113;-64
2021/12/14 09:38:18;;;;;;;49.13;27.50;;;8.40;99.90;;;;;;5097818;28;20059;-64
2021/12/14 09:40:54;;;;;;;46.28;27.13;;;8.30;99.90;;;;;;5103035;28;21034;-64
2021/12/14 09:43:23;;;;;;;40.85;27.13;;;8.40;99.90;;;;;;5103112;28;20119;-64
2021/12/14 09:45:55;;;;;;;47.30;28.63;;;8.40;99.90;;;;;;5091290;28;20201;-64
2021/12/14 09:48:34;;;;;;;62.78;33.15;;;8.50;99.90;;;;;;5099473;28;20077;-64
2021/12/14 09:51:07;;;;;;;47.13;27.90;;;8.40;99.90;;;;;;5093709;28;20140;-64
2021/12/14 09:53:35;;;;;;;46.05;27.90;;;8.40;99.90;;;;;;5092325;28;20051;-64
2021/12/14 09:56:02;;;;;;;55.03;29.40;;;8.50;99.90;;;;;;5094502;28;20048;-64
2021/12/14 09:58:32;;;;;;;48.67;27.13;;;8.40;99.90;;;;;;5103563;28;20439;-64
2021/12/14 10:01:15;;;;;;;52.72;30.42;;;8.40;99.90;;;;;;5114275;28;20055;-64
2021/12/14 10:03:45;;;;;;;41.67;25.70;;;8.50;99.90;;;;;;5107042;28;20040;-63
2021/12/14 10:06:14;;;;;;;56.67;29.00;;;8.50;99.90;;;;;;5105537;28;20044;-63
2021/12/14 10:08:47;;;;;;;48.47;27.05;;;8.40;99.90;;;;;;5093277;28;20475;-63
2021/12/14 10:11:24;;;;;;;51.42;27.33;;;8.50;99.90;;;;;;5103330;28;20096;-66
2021/12/14 10:13:53;;;;;;;58.15;30.30;;;8.40;99.90;;;;;;5089165;28;20829;-64
2021/12/14 10:16:19;;;;;;;52.85;28.58;;;8.40;99.90;;;;;;5088794;28;20048;-65
2021/12/14 10:19:07;;;;;;;47.88;26.70;;;8.50;99.90;;;;;;5083576;28;20053;-65
2021/12/14 10:21:38;;;;;;;48.60;28.23;;;8.40;99.90;;;;;;5081068;28;20045;-64
2021/12/14 10:24:07;;;;;;;49.55;26.10;;;8.40;99.90;;;;;;5086193;28;20081;-64
2021/12/14 10:26:36;;;;;;;51.22;26.98;;;8.40;99.90;;;;;;5091180;28;20418;-64
2021/12/14 10:29:03;;;;;;;52.10;30.15;;;8.50;99.90;;;;;;5090771;28;20449;-65
2021/12/14 10:31:36;;;;;;;55.25;27.77;;;8.40;99.90;;;;;;5086170;28;20037;-64
2021/12/14 10:34:05;;;;;;;50.38;27.25;;;8.40;99.90;;;;;;5105472;28;20090;-64
2021/12/14 10:36:37;;;;;;;49.78;25.92;;;8.40;99.90;;;;;;5086760;28;20063;-64
2021/12/14 10:44:27;;;;;;;45.28;25.17;;;8.40;99.90;;;;;;5090921;28;20052;-64
2021/12/14 10:46:55;;;;;;;43.92;25.08;;;8.50;99.90;;;;;;5086266;28;20169;-64
2021/12/14 10:49:24;;;;;;;46.28;27.08;;;8.50;99.90;;;;;;5092071;28;20048;-64
2021/12/14 10:51:55;;;;;;;47.88;26.77;;;8.50;99.90;;;;;;5092314;28;20076;-63
2021/12/14 10:54:22;;;;;;;64.90;30.23;;;8.60;99.90;;;;;;5093182;28;20519;-63
2021/12/14 10:57:00;;;;;;;59.55;30.38;;;8.50;99.90;;;;;;5092138;28;20393;-64
2021/12/14 10:59:30;;;;;;;56.33;28.88;;;8.60;99.90;;;;;;5086327;28;20048;-64
2021/12/14 11:01:56;;;;;;;51.30;28.88;;;8.60;99.90;;;;;;5105489;28;20062;-64
2021/12/14 11:04:34;;;;;;;45.40;24.55;;;8.60;99.90;;;;;;5093319;28;20048;-64
2021/12/14 11:07:01;;;;;;;55.45;27.50;;;8.50;99.90;;;;;;5089070;28;20101;-64
2021/12/14 11:09:41;;;;;;;47.53;26.45;;;8.70;99.90;;;;;;5091381;28;20071;-64
2021/12/14 11:12:19;;;;;;;46.63;25.55;;;8.60;99.90;;;;;;5094187;28;20109;-64
2021/12/14 11:14:46;;;;;;;41.88;23.85;;;8.60;99.90;;;;;;5112935;28;20093;-64
2021/12/14 11:20:13;;;;;;;48.67;26.00;;;8.60;99.90;;;;;;5111646;28;20413;-64
2021/12/14 11:22:47;;;;;;;45.30;26.00;;;8.70;99.90;;;;;;5110769;28;20159;-64
2021/12/14 11:25:22;;;;;;;40.28;20.42;;;8.70;99.90;;;;;;5085133;28;20616;-64
2021/12/14 11:28:00;;;;;;;41.13;22.00;;;8.70;99.90;;;;;;5086520;28;20051;-64
2021/12/14 11:30:35;;;;;;;41.75;23.95;;;8.70;99.90;;;;;;5086292;28;20048;-64
2021/12/14 11:33:06;;;;;;;33.35;20.95;;;8.70;99.90;;;;;;5090126;28;20093;-64
2021/12/14 11:35:37;;;;;;;30.30;20.05;;;8.70;99.90;;;;;;5096886;28;20047;-63
2021/12/14 11:38:10;;;;;;;31.50;18.67;;;8.70;99.90;;;;;;5111296;28;20407;-63
2021/12/14 11:40:37;;;;;;;35.63;19.58;;;8.70;99.90;;;;;;5102200;28;20083;-63
2021/12/14 11:43:16;;;;;;;29.52;18.55;;;8.80;99.90;;;;;;5086108;28;20055;-63
2021/12/14 11:45:46;;;;;;;28.92;18.25;;;8.70;99.90;;;;;;5083324;28;20044;-63
2021/12/14 11:48:12;;;;;;;39.83;19.50;;;8.90;99.90;;;;;;5076690;28;20044;-64
2021/12/14 11:50:45;;;;;;;28.90;17.10;;;8.70;99.90;;;;;;5090977;28;20494;-63
2021/12/14 11:53:18;;;;;;;28.00;16.83;;;8.80;99.90;;;;;;5091407;28;20388;-65
2021/12/14 11:55:49;;;;;;;26.45;15.75;;;8.80;99.90;;;;;;5092914;28;20494;-69
2021/12/14 11:58:38;;;;;;;23.70;13.48;;;8.70;99.90;;;;;;5104400;28;20093;-69
2021/12/14 12:01:24;;;;;;;27.27;15.30;;;8.80;99.90;;;;;;5106903;28;20031;-70
2021/12/14 12:04:10;;;;;;;23.15;14.05;;;8.80;99.90;;;;;;5090008;28;20051;-69
2021/12/14 12:09:35;;;;;;;23.48;14.15;;;8.90;99.90;;;;;;5103668;28;20055;-68
2021/12/14 12:12:04;;;;;;;23.90;15.23;;;8.90;99.90;;;;;;5080565;28;20482;-68
2021/12/14 12:14:45;;;;;;;20.70;13.73;;;8.90;99.90;;;;;;5090537;28;20067;-70
2021/12/14 12:17:28;;;;;;;21.38;13.20;;;8.80;99.90;;;;;;5105749;28;20044;-68
2021/12/14 12:19:58;;;;;;;24.73;15.00;;;8.90;99.90;;;;;;5098799;28;20056;-69
2021/12/14 12:22:24;;;;;;;19.52;12.10;;;8.80;99.90;;;;;;5084989;28;20048;-69
2021/12/14 12:24:55;;;;;;;19.08;11.88;;;8.90;99.90;;;;;;5091002;28;20044;-69
2021/12/14 12:27:24;;;;;;;14.83;10.43;;;8.80;99.90;;;;;;5090385;28;20478;-69
2021/12/14 12:30:10;;;;;;;19.67;11.73;;;8.90;99.90;;;;;;5089412;28;20044;-68
2021/12/14 12:32:36;;;;;;;15.73;9.48;;;8.80;99.90;;;;;;5089326;28;20076;-69
2021/12/14 12:35:18;;;;;;;16.33;11.48;;;8.80;99.90;;;;;;5082455;28;20499;-69
2021/12/14 12:37:44;;;;;;;13.18;9.30;;;8.90;99.90;;;;;;5070720;28;20045;-69
2021/12/14 12:40:15;;;;;;;18.20;11.32;;;8.80;99.90;;;;;;5070109;28;20059;-69
2021/12/14 12:42:41;;;;;;;18.27;11.48;;;8.80;99.90;;;;;;5069206;28;20502;-69
2021/12/14 12:45:33;;;;;;;20.55;11.52;;;8.90;99.90;;;;;;5071708;28;20404;-69
2021/12/14 12:48:01;;;;;;;15.95;11.25;;;8.90;99.90;;;;;;5087404;28;20048;-68
2021/12/14 12:50:29;;;;;;;22.77;13.55;;;9.00;99.90;;;;;;5106099;28;20040;-69
2021/12/14 12:52:55;;;;;;;20.58;13.05;;;8.90;99.90;;;;;;5090941;28;20051;-70
2021/12/14 12:55:31;;;;;;;17.48;12.27;;;9.00;99.90;;;;;;5091416;28;20062;-69
2021/12/14 12:58:12;;;;;;;16.15;10.70;;;8.90;99.90;;;;;;5083875;28;20127;-69
2021/12/14 13:00:56;;;;;;;16.73;10.82;;;9.00;99.90;;;;;;5086897;28;20043;-69
2021/12/14 13:03:24;;;;;;;18.42;11.05;;;9.00;99.90;;;;;;5088607;28;20040;-69
2021/12/14 13:06:05;;;;;;;16.65;10.35;;;8.90;99.90;;;;;;5088406;28;20048;-69
2021/12/14 13:08:36;;;;;;;16.25;9.82;;;9.00;99.90;;;;;;5090800;28;20047;-70
2021/12/14 13:11:18;;;;;;;21.02;11.40;;;8.90;99.90;;;;;;5090671;28;20686;-69
2021/12/14 13:13:51;;;;;;;18.55;10.32;;;9.00;99.90;;;;;;5078008;28;20052;-70
2021/12/14 13:16:22;;;;;;;18.70;10.57;;;9.00;99.90;;;;;;5093002;28;20133;-71
2021/12/14 13:19:11;;;;;;;15.02;10.02;;;9.00;99.90;;;;;;5093534;28;20450;-69
2021/12/14 13:21:53;;;;;;;17.88;11.63;;;9.00;99.90;;;;;;5090369;28;20050;-69
2021/12/14 13:24:26;;;;;;;14.82;9.75;;;9.00;99.90;;;;;;5085491;28;20039;-70
2021/12/14 13:26:58;;;;;;;88.38;15.65;;;9.00;99.90;;;;;;5106185;28;20236;-67
2021/12/14 13:29:29;;;;;;;15.30;9.65;;;9.00;99.90;;;;;;5096970;28;20070;-66
2021/12/14 13:31:59;;;;;;;19.45;9.85;;;9.00;99.90;;;;;;5092274;28;20036;-68
2021/12/14 13:34:30;;;;;;;14.90;10.05;;;9.00;99.90;;;;;;5084623;28;20051;-68
2021/12/14 13:36:57;;;;;;;18.40;11.65;;;9.10;99.90;;;;;;5092250;28;20048;-68